Waumandee, Wisconsin
Current Conditions -  °F | °C
As of 6:35 PM on Thursday 27 Nov 2014 (Local Time) from KONA Reporting Station
Clear Clear  
Wind Chill: 10°   Ceiling: Unl
Heat Index: 10°   Visibility: 10mi
Dew Point:   Wind: 0mph
Humidity: 67%   Direction: NA
Pressure: 30.42"   Gusts: NA
Location:  44.2495°N, 91.8243°W
Report Text: KONA 280035Z AUTO 00000KT 10SM CLR M12/M17 A3042 RMK AO2
Loading
Personal Weather Stations






























Interactive Weather Map New forecast layout! Learn more

10-Day Weather Forecast

Advertisements
Track Severe Weather on mobile